sensor_id;sensor_type;location;lat;lon;timestamp;P1;durP1;ratioP1;P2;durP2;ratioP2
78183;SDS011;67442;44.570;18.610;2023-07-20T15:36:12;12.95;;;5.13;;
78183;SDS011;67442;44.570;18.610;2023-07-20T15:38:39;8.45;;;4.75;;
78183;SDS011;67442;44.570;18.610;2023-07-20T15:41:06;14.63;;;4.97;;
78183;SDS011;67442;44.570;18.610;2023-07-20T15:43:33;10.43;;;4.55;;
78183;SDS011;67442;44.570;18.610;2023-07-20T15:46:02;10.52;;;4.90;;
78183;SDS011;67442;44.570;18.610;2023-07-20T15:48:51;9.80;;;5.10;;
78183;SDS011;67442;44.570;18.610;2023-07-20T15:51:18;8.85;;;4.65;;
78183;SDS011;67442;44.570;18.610;2023-07-20T15:53:45;11.38;;;5.18;;
78183;SDS011;67442;44.570;18.610;2023-07-20T15:56:13;7.65;;;4.75;;
78183;SDS011;67442;44.570;18.610;2023-07-20T15:58:39;13.18;;;5.50;;
78183;SDS011;67442;44.570;18.610;2023-07-20T16:01:07;11.23;;;4.57;;
78183;SDS011;67442;44.570;18.610;2023-07-20T16:03:34;11.20;;;4.90;;
78183;SDS011;67442;44.570;18.610;2023-07-20T16:06:01;10.07;;;4.82;;
78183;SDS011;67442;44.570;18.610;2023-07-20T16:08:32;9.07;;;4.70;;
78183;SDS011;67442;44.570;18.610;2023-07-20T16:10:59;9.70;;;4.55;;
78183;SDS011;67442;44.570;18.610;2023-07-20T16:13:28;8.48;;;4.32;;
78183;SDS011;67442;44.570;18.610;2023-07-20T16:15:55;11.50;;;4.97;;
78183;SDS011;67442;44.570;18.610;2023-07-20T16:18:26;9.02;;;4.82;;
78183;SDS011;67442;44.570;18.610;2023-07-20T16:20:55;15.02;;;5.25;;
78183;SDS011;67442;44.570;18.610;2023-07-20T16:23:21;12.32;;;4.80;;
78183;SDS011;67442;44.570;18.610;2023-07-20T16:25:49;13.52;;;4.65;;
78183;SDS011;67442;44.570;18.610;2023-07-20T16:28:17;10.18;;;4.75;;
78183;SDS011;67442;44.570;18.610;2023-07-20T16:30:44;9.82;;;4.53;;
78183;SDS011;67442;44.570;18.610;2023-07-20T16:33:18;13.93;;;4.25;;
78183;SDS011;67442;44.570;18.610;2023-07-20T16:35:45;14.75;;;4.82;;
78183;SDS011;67442;44.570;18.610;2023-07-20T16:38:12;14.85;;;4.90;;
78183;SDS011;67442;44.570;18.610;2023-07-20T16:40:40;10.52;;;4.70;;
78183;SDS011;67442;44.570;18.610;2023-07-20T16:43:10;11.00;;;4.25;;
78183;SDS011;67442;44.570;18.610;2023-07-20T16:45:38;10.70;;;4.80;;
78183;SDS011;67442;44.570;18.610;2023-07-20T16:48:05;12.73;;;4.75;;
78183;SDS011;67442;44.570;18.610;2023-07-20T16:50:32;9.35;;;4.90;;
78183;SDS011;67442;44.570;18.610;2023-07-20T16:53:00;12.27;;;4.60;;
78183;SDS011;67442;44.570;18.610;2023-07-20T16:55:27;11.20;;;4.60;;
78183;SDS011;67442;44.570;18.610;2023-07-20T16:57:55;10.82;;;4.20;;
78183;SDS011;67442;44.570;18.610;2023-07-20T17:00:22;14.90;;;4.90;;
78183;SDS011;67442;44.570;18.610;2023-07-20T17:02:53;9.55;;;4.22;;
78183;SDS011;67442;44.570;18.610;2023-07-20T17:05:24;8.75;;;4.20;;
78183;SDS011;67442;44.570;18.610;2023-07-20T17:07:52;7.13;;;3.90;;
78183;SDS011;67442;44.570;18.610;2023-07-20T17:10:24;11.60;;;4.95;;
78183;SDS011;67442;44.570;18.610;2023-07-20T17:12:50;12.50;;;4.55;;
78183;SDS011;67442;44.570;18.610;2023-07-20T17:15:17;11.45;;;4.32;;
78183;SDS011;67442;44.570;18.610;2023-07-20T17:17:45;10.68;;;4.07;;
78183;SDS011;67442;44.570;18.610;2023-07-20T17:20:12;10.80;;;4.40;;
78183;SDS011;67442;44.570;18.610;2023-07-20T17:22:40;10.35;;;3.75;;
78183;SDS011;67442;44.570;18.610;2023-07-20T17:25:07;8.50;;;4.20;;
78183;SDS011;67442;44.570;18.610;2023-07-20T17:27:35;6.90;;;3.97;;
78183;SDS011;67442;44.570;18.610;2023-07-20T17:43:16;18.40;;;8.52;;
78183;SDS011;67442;44.570;18.610;2023-07-20T17:45:43;19.33;;;9.43;;
78183;SDS011;67442;44.570;18.610;2023-07-20T17:48:13;30.23;;;12.82;;
78183;SDS011;67442;44.570;18.610;2023-07-20T17:50:40;34.85;;;14.57;;
78183;SDS011;67442;44.570;18.610;2023-07-20T17:53:12;39.85;;;15.55;;
78183;SDS011;67442;44.570;18.610;2023-07-20T17:55:43;47.75;;;19.77;;
78183;SDS011;67442;44.570;18.610;2023-07-20T17:58:14;89.13;;;35.22;;
78183;SDS011;67442;44.570;18.610;2023-07-20T18:00:52;275.27;;;78.90;;
78183;SDS011;67442;44.570;18.610;2023-07-20T18:03:24;276.02;;;78.03;;
78183;SDS011;67442;44.570;18.610;2023-07-20T18:05:51;247.45;;;73.55;;
78183;SDS011;67442;44.570;18.610;2023-07-20T18:08:23;236.20;;;68.43;;
78183;SDS011;67442;44.570;18.610;2023-07-20T18:10:57;217.77;;;66.40;;
78183;SDS011;67442;44.570;18.610;2023-07-20T18:13:31;195.52;;;60.63;;
78183;SDS011;67442;44.570;18.610;2023-07-20T18:15:59;192.52;;;55.70;;
78183;SDS011;67442;44.570;18.610;2023-07-20T18:18:26;165.50;;;52.30;;
78183;SDS011;67442;44.570;18.610;2023-07-20T18:20:53;169.32;;;48.00;;
78183;SDS011;67442;44.570;18.610;2023-07-20T18:23:21;153.23;;;44.90;;
78183;SDS011;67442;44.570;18.610;2023-07-20T18:25:48;150.43;;;42.97;;
78183;SDS011;67442;44.570;18.610;2023-07-20T18:28:15;138.25;;;41.45;;
78183;SDS011;67442;44.570;18.610;2023-07-20T18:30:42;144.30;;;41.00;;
78183;SDS011;67442;44.570;18.610;2023-07-20T18:33:11;130.82;;;37.42;;
78183;SDS011;67442;44.570;18.610;2023-07-20T18:35:38;127.07;;;37.42;;
78183;SDS011;67442;44.570;18.610;2023-07-20T18:38:06;134.27;;;36.78;;
78183;SDS011;67442;44.570;18.610;2023-07-20T18:40:35;117.05;;;33.33;;
78183;SDS011;67442;44.570;18.610;2023-07-20T18:43:05;111.00;;;32.60;;
78183;SDS011;67442;44.570;18.610;2023-07-20T18:45:32;109.35;;;31.23;;
78183;SDS011;67442;44.570;18.610;2023-07-20T18:48:03;102.28;;;30.42;;
78183;SDS011;67442;44.570;18.610;2023-07-20T18:50:30;109.20;;;31.15;;
78183;SDS011;67442;44.570;18.610;2023-07-20T18:52:59;105.28;;;29.40;;
78183;SDS011;67442;44.570;18.610;2023-07-20T18:55:31;87.60;;;28.02;;
78183;SDS011;67442;44.570;18.610;2023-07-20T18:58:00;92.03;;;26.02;;
78183;SDS011;67442;44.570;18.610;2023-07-20T19:00:28;96.00;;;25.98;;
78183;SDS011;67442;44.570;18.610;2023-07-20T19:02:55;179.35;;;39.15;;
78183;SDS011;67442;44.570;18.610;2023-07-20T19:05:22;245.05;;;51.65;;
78183;SDS011;67442;44.570;18.610;2023-07-20T19:07:49;174.75;;;41.28;;
78183;SDS011;67442;44.570;18.610;2023-07-20T19:10:16;186.82;;;40.08;;
78183;SDS011;67442;44.570;18.610;2023-07-20T19:12:43;161.95;;;37.00;;
78183;SDS011;67442;44.570;18.610;2023-07-20T19:15:14;171.38;;;37.92;;
78183;SDS011;67442;44.570;18.610;2023-07-20T19:17:42;148.77;;;35.08;;
78183;SDS011;67442;44.570;18.610;2023-07-20T19:20:09;152.55;;;37.30;;
78183;SDS011;67442;44.570;18.610;2023-07-20T19:22:42;130.52;;;32.80;;
78183;SDS011;67442;44.570;18.610;2023-07-20T19:25:10;148.73;;;34.08;;
78183;SDS011;67442;44.570;18.610;2023-07-20T19:27:41;148.32;;;34.28;;
78183;SDS011;67442;44.570;18.610;2023-07-20T19:30:09;127.05;;;31.05;;
78183;SDS011;67442;44.570;18.610;2023-07-20T19:32:36;138.73;;;30.38;;
78183;SDS011;67442;44.570;18.610;2023-07-20T19:35:07;118.72;;;31.08;;
78183;SDS011;67442;44.570;18.610;2023-07-20T19:37:35;131.52;;;30.55;;
78183;SDS011;67442;44.570;18.610;2023-07-20T19:40:03;132.27;;;29.40;;
78183;SDS011;67442;44.570;18.610;2023-07-20T19:42:34;132.55;;;29.95;;
78183;SDS011;67442;44.570;18.610;2023-07-20T19:45:02;111.10;;;28.90;;
78183;SDS011;67442;44.570;18.610;2023-07-20T19:47:30;127.50;;;29.40;;
78183;SDS011;67442;44.570;18.610;2023-07-20T19:50:00;126.38;;;28.42;;
78183;SDS011;67442;44.570;18.610;2023-07-20T19:52:29;122.90;;;27.80;;
78183;SDS011;67442;44.570;18.610;2023-07-20T19:54:56;113.15;;;27.15;;
78183;SDS011;67442;44.570;18.610;2023-07-20T19:57:23;103.18;;;27.05;;
78183;SDS011;67442;44.570;18.610;2023-07-20T19:59:51;99.95;;;24.25;;
78183;SDS011;67442;44.570;18.610;2023-07-20T20:02:19;116.28;;;25.23;;
78183;SDS011;67442;44.570;18.610;2023-07-20T20:04:46;101.13;;;26.33;;
78183;SDS011;67442;44.570;18.610;2023-07-20T20:07:14;98.55;;;25.67;;
78183;SDS011;67442;44.570;18.610;2023-07-20T20:09:41;111.57;;;25.92;;
78183;SDS011;67442;44.570;18.610;2023-07-20T20:12:09;90.82;;;25.45;;
78183;SDS011;67442;44.570;18.610;2023-07-20T20:14:37;93.68;;;24.42;;
78183;SDS011;67442;44.570;18.610;2023-07-20T20:17:07;91.30;;;23.17;;
78183;SDS011;67442;44.570;18.610;2023-07-20T20:19:35;91.13;;;22.77;;
78183;SDS011;67442;44.570;18.610;2023-07-20T20:22:02;94.70;;;25.55;;
78183;SDS011;67442;44.570;18.610;2023-07-20T20:24:31;91.82;;;22.00;;
78183;SDS011;67442;44.570;18.610;2023-07-20T20:27:04;87.88;;;23.40;;
78183;SDS011;67442;44.570;18.610;2023-07-20T20:29:36;80.88;;;23.10;;
78183;SDS011;67442;44.570;18.610;2023-07-20T20:32:03;94.55;;;23.50;;
78183;SDS011;67442;44.570;18.610;2023-07-20T20:34:32;76.80;;;21.65;;
78183;SDS011;67442;44.570;18.610;2023-07-20T20:37:03;81.85;;;21.85;;
78183;SDS011;67442;44.570;18.610;2023-07-20T20:39:32;87.78;;;23.48;;
78183;SDS011;67442;44.570;18.610;2023-07-20T20:41:59;76.15;;;21.63;;
78183;SDS011;67442;44.570;18.610;2023-07-20T20:44:26;78.00;;;22.15;;
78183;SDS011;67442;44.570;18.610;2023-07-20T20:46:54;78.68;;;21.98;;
78183;SDS011;67442;44.570;18.610;2023-07-20T20:49:29;85.93;;;22.38;;
78183;SDS011;67442;44.570;18.610;2023-07-20T20:51:57;90.50;;;21.15;;
78183;SDS011;67442;44.570;18.610;2023-07-20T20:54:24;78.13;;;20.25;;
78183;SDS011;67442;44.570;18.610;2023-07-20T20:56:50;65.60;;;19.15;;
78183;SDS011;67442;44.570;18.610;2023-07-20T20:59:20;59.35;;;18.20;;
78183;SDS011;67442;44.570;18.610;2023-07-20T21:01:48;67.57;;;18.70;;
78183;SDS011;67442;44.570;18.610;2023-07-20T21:04:15;66.75;;;19.80;;
78183;SDS011;67442;44.570;18.610;2023-07-20T21:06:46;58.38;;;17.80;;
78183;SDS011;67442;44.570;18.610;2023-07-20T21:09:18;68.13;;;18.58;;
78183;SDS011;67442;44.570;18.610;2023-07-20T21:11:45;69.03;;;18.98;;
78183;SDS011;67442;44.570;18.610;2023-07-20T21:14:12;64.70;;;18.67;;
78183;SDS011;67442;44.570;18.610;2023-07-20T21:16:40;67.20;;;20.08;;
78183;SDS011;67442;44.570;18.610;2023-07-20T21:19:07;68.10;;;19.98;;
78183;SDS011;67442;44.570;18.610;2023-07-20T21:21:38;74.28;;;19.83;;
78183;SDS011;67442;44.570;18.610;2023-07-20T21:24:05;72.95;;;19.08;;
78183;SDS011;67442;44.570;18.610;2023-07-20T21:26:33;61.60;;;17.48;;
78183;SDS011;67442;44.570;18.610;2023-07-20T21:29:04;61.90;;;18.55;;
78183;SDS011;67442;44.570;18.610;2023-07-20T21:31:35;62.88;;;18.40;;
78183;SDS011;67442;44.570;18.610;2023-07-20T21:34:02;63.70;;;18.35;;
78183;SDS011;67442;44.570;18.610;2023-07-20T21:36:30;62.13;;;18.50;;
78183;SDS011;67442;44.570;18.610;2023-07-20T21:38:57;62.92;;;17.52;;
78183;SDS011;67442;44.570;18.610;2023-07-20T21:41:25;50.72;;;17.23;;
78183;SDS011;67442;44.570;18.610;2023-07-20T21:43:52;56.08;;;17.10;;
78183;SDS011;67442;44.570;18.610;2023-07-20T21:46:19;53.00;;;17.83;;
78183;SDS011;67442;44.570;18.610;2023-07-20T21:48:47;58.30;;;16.98;;
78183;SDS011;67442;44.570;18.610;2023-07-20T21:51:14;52.63;;;17.65;;
78183;SDS011;67442;44.570;18.610;2023-07-20T21:53:43;57.25;;;17.50;;
78183;SDS011;67442;44.570;18.610;2023-07-20T21:56:14;55.88;;;17.92;;
78183;SDS011;67442;44.570;18.610;2023-07-20T21:58:40;51.75;;;16.35;;
78183;SDS011;67442;44.570;18.610;2023-07-20T22:01:08;55.38;;;16.85;;
78183;SDS011;67442;44.570;18.610;2023-07-20T22:03:35;53.72;;;16.63;;
78183;SDS011;67442;44.570;18.610;2023-07-20T22:06:06;63.03;;;16.60;;
78183;SDS011;67442;44.570;18.610;2023-07-20T22:08:33;57.72;;;16.48;;
78183;SDS011;67442;44.570;18.610;2023-07-20T22:11:04;53.95;;;16.63;;
78183;SDS011;67442;44.570;18.610;2023-07-20T22:13:32;45.22;;;15.73;;
78183;SDS011;67442;44.570;18.610;2023-07-20T22:15:59;54.17;;;16.95;;
78183;SDS011;67442;44.570;18.610;2023-07-20T22:18:28;48.22;;;16.05;;
78183;SDS011;67442;44.570;18.610;2023-07-20T22:20:59;48.90;;;15.45;;
78183;SDS011;67442;44.570;18.610;2023-07-20T22:23:45;51.97;;;16.27;;
78183;SDS011;67442;44.570;18.610;2023-07-20T22:26:13;48.72;;;14.73;;
78183;SDS011;67442;44.570;18.610;2023-07-20T22:28:42;51.47;;;17.48;;
78183;SDS011;67442;44.570;18.610;2023-07-20T22:31:11;52.42;;;16.75;;
78183;SDS011;67442;44.570;18.610;2023-07-20T22:33:39;44.13;;;15.15;;
78183;SDS011;67442;44.570;18.610;2023-07-20T22:36:06;47.13;;;17.38;;
78183;SDS011;67442;44.570;18.610;2023-07-20T22:38:42;49.03;;;15.98;;
78183;SDS011;67442;44.570;18.610;2023-07-20T22:41:09;49.67;;;15.18;;
78183;SDS011;67442;44.570;18.610;2023-07-20T22:43:36;46.15;;;15.57;;
78183;SDS011;67442;44.570;18.610;2023-07-20T22:46:03;53.53;;;17.00;;
78183;SDS011;67442;44.570;18.610;2023-07-20T22:48:31;43.60;;;15.20;;
78183;SDS011;67442;44.570;18.610;2023-07-20T22:50:58;42.90;;;15.15;;
78183;SDS011;67442;44.570;18.610;2023-07-20T22:53:29;51.22;;;15.13;;
78183;SDS011;67442;44.570;18.610;2023-07-20T22:55:56;47.67;;;15.43;;
78183;SDS011;67442;44.570;18.610;2023-07-20T22:58:23;43.95;;;15.10;;
78183;SDS011;67442;44.570;18.610;2023-07-20T23:00:50;40.72;;;14.73;;
78183;SDS011;67442;44.570;18.610;2023-07-20T23:03:18;43.35;;;14.82;;
78183;SDS011;67442;44.570;18.610;2023-07-20T23:05:45;45.55;;;14.77;;
78183;SDS011;67442;44.570;18.610;2023-07-20T23:08:13;48.97;;;15.55;;
78183;SDS011;67442;44.570;18.610;2023-07-20T23:10:40;45.60;;;14.77;;
78183;SDS011;67442;44.570;18.610;2023-07-20T23:13:07;43.95;;;14.77;;
78183;SDS011;67442;44.570;18.610;2023-07-20T23:15:34;44.20;;;15.75;;
78183;SDS011;67442;44.570;18.610;2023-07-20T23:18:04;45.50;;;15.63;;
78183;SDS011;67442;44.570;18.610;2023-07-20T23:20:34;49.13;;;16.27;;
78183;SDS011;67442;44.570;18.610;2023-07-20T23:23:02;41.25;;;15.02;;
78183;SDS011;67442;44.570;18.610;2023-07-20T23:25:33;45.53;;;16.05;;
78183;SDS011;67442;44.570;18.610;2023-07-20T23:28:04;46.97;;;14.38;;
78183;SDS011;67442;44.570;18.610;2023-07-20T23:30:35;42.03;;;14.02;;
78183;SDS011;67442;44.570;18.610;2023-07-20T23:33:03;42.50;;;14.82;;
78183;SDS011;67442;44.570;18.610;2023-07-20T23:35:30;41.65;;;14.43;;
78183;SDS011;67442;44.570;18.610;2023-07-20T23:38:00;40.95;;;13.68;;
78183;SDS011;67442;44.570;18.610;2023-07-20T23:40:28;43.67;;;14.30;;
78183;SDS011;67442;44.570;18.610;2023-07-20T23:42:59;49.85;;;16.27;;
78183;SDS011;67442;44.570;18.610;2023-07-20T23:45:27;42.15;;;14.23;;
78183;SDS011;67442;44.570;18.610;2023-07-20T23:47:54;40.03;;;14.52;;
78183;SDS011;67442;44.570;18.610;2023-07-20T23:50:26;35.03;;;13.05;;
78183;SDS011;67442;44.570;18.610;2023-07-20T23:52:53;40.25;;;14.45;;
78183;SDS011;67442;44.570;18.610;2023-07-20T23:55:24;34.42;;;13.30;;
78183;SDS011;67442;44.570;18.610;2023-07-20T23:57:56;32.80;;;12.57;;
